createdAt,value
2023-04-23T00:00:07.360Z,13.50
2023-04-23T00:02:09.737Z,16.00
2023-04-23T00:04:12.839Z,11.50
2023-04-23T00:06:15.295Z,14.75
2023-04-23T00:08:18.685Z,16.25
2023-04-23T00:10:20.701Z,12.25
2023-04-23T00:12:22.851Z,14.00
2023-04-23T00:14:26.254Z,15.25
2023-04-23T00:16:28.332Z,16.50
2023-04-23T00:18:29.930Z,21.50
2023-04-23T00:20:31.503Z,18.50
2023-04-23T00:22:33.150Z,10.75
2023-04-23T00:24:34.737Z,16.25
2023-04-23T00:26:36.273Z,18.00
2023-04-23T00:28:37.931Z,15.50
2023-04-23T00:30:40.836Z,16.50
2023-04-23T00:32:42.387Z,13.75
2023-04-23T00:34:44.288Z,15.75
2023-04-23T00:36:45.899Z,12.25
2023-04-23T00:38:47.440Z,15.75
2023-04-23T00:40:48.999Z,17.75
2023-04-23T00:42:51.914Z,14.50
2023-04-23T00:44:53.739Z,14.75
2023-04-23T00:46:56.675Z,14.50
2023-04-23T00:48:58.374Z,17.00
2023-04-23T00:51:00.387Z,15.25
2023-04-23T00:53:01.919Z,12.00
2023-04-23T00:55:03.661Z,15.75
2023-04-23T00:57:05.425Z,14.25
2023-04-23T00:59:07.104Z,15.25
2023-04-23T01:01:09.372Z,17.25
2023-04-23T01:03:12.616Z,11.00
2023-04-23T01:05:15.883Z,18.75
2023-04-23T01:07:18.035Z,17.00
2023-04-23T01:09:20.452Z,15.25
2023-04-23T01:11:22.108Z,20.50
2023-04-23T01:13:24.073Z,12.00
2023-04-23T01:15:26.609Z,16.50
2023-04-23T01:17:28.216Z,14.00
2023-04-23T01:19:31.370Z,15.50
2023-04-23T01:21:34.376Z,15.75
2023-04-23T01:23:37.480Z,15.75
2023-04-23T01:25:39.118Z,13.75
2023-04-23T01:27:41.262Z,15.25
2023-04-23T01:29:43.418Z,13.00
2023-04-23T01:31:45.003Z,17.50
2023-04-23T01:33:46.907Z,15.75
2023-04-23T01:35:49.164Z,17.25
2023-04-23T01:37:51.556Z,12.50
2023-04-23T01:39:54.549Z,17.50
2023-04-23T01:41:56.296Z,14.50
2023-04-23T01:43:58.516Z,16.00
2023-04-23T01:46:00.318Z,14.50
2023-04-23T01:48:02.396Z,15.75
2023-04-23T01:50:04.694Z,17.25
2023-04-23T01:52:06.331Z,17.50
2023-04-23T01:54:07.881Z,19.50
2023-04-23T01:56:11.481Z,10.50
2023-04-23T01:58:13.306Z,16.50
2023-04-23T02:00:16.073Z,17.00
2023-04-23T02:02:17.669Z,16.00
2023-04-23T02:04:19.957Z,16.00
2023-04-23T02:06:21.655Z,15.75
2023-04-23T02:08:23.245Z,18.50
2023-04-23T02:10:24.964Z,7.50
2023-04-23T02:12:27.921Z,18.50
2023-04-23T02:14:29.795Z,16.50
2023-04-23T02:16:31.510Z,14.75
2023-04-23T02:18:33.133Z,15.75
2023-04-23T02:20:35.039Z,15.50
2023-04-23T02:22:37.364Z,18.50
2023-04-23T02:24:39.080Z,17.25
2023-04-23T02:26:40.984Z,18.00
2023-04-23T02:28:43.895Z,15.50
2023-04-23T02:30:45.553Z,16.50
2023-04-23T02:32:47.159Z,14.25
2023-04-23T02:34:48.952Z,16.50
2023-04-23T02:36:50.614Z,20.25
2023-04-23T02:38:52.259Z,14.50
2023-04-23T02:40:53.813Z,18.25
2023-04-23T02:42:55.346Z,17.75
2023-04-23T02:44:58.330Z,19.50
2023-04-23T02:47:00.192Z,10.25
2023-04-23T02:49:01.914Z,17.50
2023-04-23T02:51:03.503Z,15.25
2023-04-23T02:53:05.348Z,17.00
2023-04-23T02:55:08.427Z,20.25
2023-04-23T02:57:09.993Z,17.50
2023-04-23T02:59:11.656Z,16.25
2023-04-23T03:01:14.764Z,15.00
2023-04-23T03:03:17.394Z,17.25
2023-04-23T03:05:19.557Z,16.75
2023-04-23T03:07:21.419Z,20.50
2023-04-23T03:09:23.271Z,10.00
2023-04-23T03:11:24.820Z,2.75
2023-04-23T03:13:26.986Z,16.00
2023-04-23T03:15:28.741Z,16.25
2023-04-23T03:17:31.659Z,17.75
2023-04-23T03:19:33.205Z,19.00
2023-04-23T03:21:34.710Z,16.25
2023-04-23T03:23:36.365Z,17.50
2023-04-23T03:25:38.232Z,20.25
2023-04-23T03:27:40.507Z,17.50
2023-04-23T03:29:42.330Z,16.75
2023-04-23T03:31:43.844Z,17.75
2023-04-23T03:33:46.782Z,16.25
2023-04-23T03:35:48.424Z,16.00
2023-04-23T03:37:50.128Z,18.50
2023-04-23T03:39:51.659Z,19.75
2023-04-23T03:41:53.475Z,19.25
2023-04-23T03:43:55.036Z,17.50
2023-04-23T03:45:56.648Z,18.50
2023-04-23T03:47:58.519Z,19.00
2023-04-23T03:50:01.412Z,15.25
2023-04-23T03:52:03.072Z,16.50
2023-04-23T03:54:05.021Z,17.00
2023-04-23T03:56:06.789Z,18.25
2023-04-23T03:58:08.403Z,14.50
2023-04-23T04:00:10.821Z,12.00
2023-04-23T04:02:12.513Z,18.00
2023-04-23T04:04:14.332Z,17.50
2023-04-23T04:06:17.452Z,19.75
2023-04-23T04:08:19.039Z,17.75
2023-04-23T04:10:20.816Z,13.75
2023-04-23T04:12:22.789Z,19.00
2023-04-23T04:14:24.380Z,20.50
2023-04-23T04:16:26.069Z,17.75
2023-04-23T04:18:27.716Z,15.25
2023-04-23T04:20:29.382Z,20.00
2023-04-23T04:22:32.400Z,19.25
2023-04-23T04:24:33.957Z,16.75
2023-04-23T04:26:35.561Z,20.00
2023-04-23T04:28:37.249Z,15.25
2023-04-23T04:30:39.053Z,17.75
2023-04-23T04:32:40.864Z,21.50
2023-04-23T04:34:42.703Z,20.75
2023-04-23T04:36:44.451Z,15.75
2023-04-23T04:38:47.407Z,19.25
2023-04-23T04:40:49.097Z,18.75
2023-04-23T04:42:50.690Z,22.25
2023-04-23T04:44:52.254Z,17.25
2023-04-23T04:46:54.048Z,17.75
2023-04-23T04:48:55.802Z,14.00
2023-04-23T04:50:57.663Z,17.75
2023-04-23T04:52:59.276Z,19.50
2023-04-23T04:55:02.153Z,17.25
2023-04-23T04:57:04.045Z,18.75
2023-04-23T04:59:05.604Z,19.25
2023-04-23T05:01:07.318Z,16.75
2023-04-23T05:03:10.983Z,16.75
2023-04-23T05:05:14.175Z,18.25
2023-04-23T05:07:15.740Z,19.75
2023-04-23T05:09:17.402Z,18.25
2023-04-23T05:11:20.743Z,19.25
2023-04-23T05:13:22.369Z,17.50
2023-04-23T05:15:23.990Z,20.25
2023-04-23T05:17:25.707Z,16.25
2023-04-23T05:19:27.307Z,18.00
2023-04-23T05:21:28.962Z,15.50
2023-04-23T05:23:31.030Z,20.00
2023-04-23T05:25:32.811Z,17.75
2023-04-23T05:27:36.034Z,16.75
2023-04-23T05:29:37.601Z,18.00
2023-04-23T05:31:39.370Z,18.50
2023-04-23T05:33:49.271Z,21.00
2023-04-23T05:35:51.804Z,20.00
2023-04-23T05:37:53.388Z,16.00
2023-04-23T05:39:55.425Z,18.00
2023-04-23T05:41:57.246Z,18.00
2023-04-23T05:44:00.289Z,15.00
2023-04-23T05:46:01.989Z,15.50
2023-04-23T05:48:03.817Z,17.75
2023-04-23T05:50:06.837Z,18.00
2023-04-23T05:52:08.669Z,17.25
2023-04-23T05:54:10.228Z,21.50
2023-04-23T05:56:11.838Z,19.25
2023-04-23T05:58:13.382Z,16.00
2023-04-23T06:00:16.608Z,16.50
2023-04-23T06:02:18.326Z,15.50
2023-04-23T06:04:20.771Z,17.75
2023-04-23T06:06:22.505Z,24.00
2023-04-23T06:08:25.312Z,21.75
2023-04-23T06:10:27.085Z,23.25
2023-04-23T06:12:28.706Z,16.00
2023-04-23T06:14:30.287Z,16.75
2023-04-23T06:16:36.585Z,21.25
2023-04-23T06:18:38.301Z,18.75
2023-04-23T06:20:39.952Z,14.25
2023-04-23T06:22:41.488Z,19.00
2023-04-23T06:24:43.256Z,15.50
2023-04-23T06:26:45.118Z,18.00
2023-04-23T06:28:47.056Z,21.25
2023-04-23T06:30:48.872Z,19.00
2023-04-23T06:32:52.348Z,19.50
2023-04-23T06:35:00.716Z,18.25
2023-04-23T06:37:03.901Z,23.75
2023-04-23T06:39:05.505Z,19.50
2023-04-23T06:41:07.165Z,19.00
2023-04-23T06:43:09.130Z,19.50
2023-04-23T06:45:11.340Z,17.50
2023-04-23T06:47:13.354Z,14.50
2023-04-23T06:49:16.490Z,18.25
2023-04-23T06:51:18.132Z,18.50
2023-04-23T06:53:19.778Z,15.25
2023-04-23T06:55:21.447Z,18.50
2023-04-23T06:57:23.076Z,18.00
2023-04-23T06:59:24.658Z,15.75
2023-04-23T07:01:26.543Z,16.50
2023-04-23T07:03:28.491Z,18.25
2023-04-23T07:05:34.253Z,20.00
2023-04-23T07:07:36.217Z,17.00
2023-04-23T07:09:37.959Z,18.50
2023-04-23T07:11:39.633Z,18.75
2023-04-23T07:13:42.080Z,20.25
2023-04-23T07:15:43.695Z,20.75
2023-04-23T07:17:45.390Z,19.25
2023-04-23T07:19:49.580Z,19.50
2023-04-23T07:21:52.725Z,17.00
2023-04-23T07:23:55.665Z,17.75
2023-04-23T07:25:57.239Z,21.50
2023-04-23T07:27:58.921Z,18.75
2023-04-23T07:30:00.499Z,16.25
2023-04-23T07:32:02.175Z,20.00
2023-04-23T07:34:03.691Z,15.00
2023-04-23T07:36:05.321Z,19.00
2023-04-23T07:38:08.252Z,18.25
2023-04-23T07:40:10.485Z,12.75
2023-04-23T07:42:12.231Z,16.75
2023-04-23T07:44:13.766Z,17.75
2023-04-23T07:46:15.569Z,16.75
2023-04-23T07:48:17.195Z,19.50
2023-04-23T07:50:18.970Z,12.75
2023-04-23T07:52:20.799Z,20.75
2023-04-23T07:54:25.219Z,18.00
2023-04-23T07:56:27.369Z,21.00
2023-04-23T07:58:29.034Z,20.25
2023-04-23T08:00:30.750Z,19.75
2023-04-23T08:02:32.369Z,14.75
2023-04-23T08:04:34.217Z,18.75
2023-04-23T08:06:35.972Z,21.50
2023-04-23T08:08:37.791Z,16.75
2023-04-23T08:10:40.984Z,21.00
2023-04-23T08:12:42.544Z,18.50
2023-04-23T08:14:44.508Z,18.50
2023-04-23T08:16:46.146Z,17.00
2023-04-23T08:19:01.755Z,16.50
2023-04-23T08:21:06.426Z,15.00
2023-04-23T08:23:08.012Z,18.50
2023-04-23T08:25:10.452Z,20.00
2023-04-23T08:27:13.376Z,20.25
2023-04-23T08:29:14.938Z,18.25
2023-04-23T08:31:25.767Z,14.25
2023-04-23T08:33:28.397Z,17.75
2023-04-23T08:35:30.418Z,15.50
2023-04-23T08:37:32.065Z,20.25
2023-04-23T08:39:35.537Z,19.75
2023-04-23T08:41:40.327Z,18.00
2023-04-23T08:43:50.722Z,26.25
2023-04-23T08:45:53.920Z,17.50
2023-04-23T08:48:01.848Z,20.00
2023-04-23T08:50:05.427Z,17.75
2023-04-23T08:52:15.960Z,19.75
2023-04-23T08:54:23.695Z,18.00
2023-04-23T08:56:26.729Z,14.00
2023-04-23T08:58:29.147Z,22.75
2023-04-23T09:00:33.285Z,16.75
2023-04-23T09:02:35.971Z,18.75
2023-04-23T09:04:38.486Z,18.25
2023-04-23T09:06:40.126Z,19.00
2023-04-23T09:08:42.320Z,17.75
2023-04-23T09:10:44.552Z,18.25
2023-04-23T09:12:46.388Z,17.25
2023-04-23T09:14:50.019Z,17.75
2023-04-23T09:16:53.724Z,14.50
2023-04-23T09:18:55.469Z,19.00
2023-04-23T09:20:57.450Z,20.00
2023-04-23T09:22:59.108Z,13.50
2023-04-23T09:25:01.719Z,16.50
2023-04-23T09:27:03.681Z,15.25
2023-04-23T09:29:13.494Z,19.50
2023-04-23T09:31:15.623Z,8.00
2023-04-23T09:33:18.583Z,5.25
2023-04-23T09:35:20.215Z,6.00
2023-04-23T09:37:25.809Z,7.00
2023-04-23T09:39:27.443Z,8.00
2023-04-23T09:41:29.172Z,5.75
2023-04-23T09:43:30.751Z,8.75
2023-04-23T09:45:32.583Z,7.25
2023-04-23T09:47:35.012Z,4.00
2023-04-23T09:49:46.831Z,4.00
2023-04-23T09:51:49.560Z,3.50
2023-04-23T09:53:51.185Z,5.50
2023-04-23T09:55:53.480Z,6.00
2023-04-23T09:57:54.985Z,3.00
2023-04-23T10:00:03.706Z,3.75
2023-04-23T10:02:12.925Z,2.75
2023-04-23T10:04:18.383Z,4.00
2023-04-23T10:08:32.678Z,3.00
2023-04-23T10:10:43.097Z,3.00
2023-04-23T10:12:55.178Z,4.00
2023-04-23T10:14:57.854Z,10.75
2023-04-23T10:17:01.210Z,3.50
2023-04-23T10:19:05.262Z,4.00
2023-04-23T10:21:07.517Z,2.25
2023-04-23T10:23:12.963Z,4.25
2023-04-23T10:25:15.582Z,4.00
2023-04-23T10:27:30.665Z,2.00
2023-04-23T10:29:35.073Z,4.50
2023-04-23T10:31:37.907Z,4.50
2023-04-23T10:33:53.550Z,7.00
2023-04-23T10:35:59.334Z,4.75
2023-04-23T10:38:01.818Z,6.00
2023-04-23T10:40:08.956Z,3.00
2023-04-23T10:42:11.647Z,6.75
2023-04-23T10:44:16.064Z,4.00
2023-04-23T10:46:30.772Z,5.50
2023-04-23T10:48:51.857Z,3.50
2023-04-23T10:51:06.980Z,4.50
2023-04-23T10:53:23.605Z,4.50
2023-04-23T10:55:28.562Z,5.00
2023-04-23T10:57:30.186Z,8.00
2023-04-23T10:59:32.872Z,4.00
2023-04-23T11:01:34.591Z,5.75
2023-04-23T11:03:41.582Z,4.00
2023-04-23T11:05:44.975Z,5.25
2023-04-23T11:08:11.044Z,3.25
2023-04-23T11:10:16.707Z,3.00
2023-04-23T11:12:32.721Z,3.00
2023-04-23T11:14:42.003Z,4.00
2023-04-23T11:16:43.756Z,3.00
2023-04-23T11:18:55.734Z,3.00
2023-04-23T11:20:57.284Z,3.00
2023-04-23T11:22:58.839Z,3.00
2023-04-23T11:25:02.085Z,3.75
2023-04-23T11:27:06.558Z,1.00
2023-04-23T11:29:12.156Z,3.25
2023-04-23T11:31:15.131Z,4.25
2023-04-23T11:33:16.714Z,5.00
2023-04-23T11:35:20.214Z,5.25
2023-04-23T11:37:21.833Z,3.00
2023-04-23T11:39:23.771Z,2.50
2023-04-23T11:41:25.321Z,4.75
2023-04-23T11:43:26.941Z,3.50
2023-04-23T11:45:30.478Z,3.25
2023-04-23T11:47:32.566Z,3.50
2023-04-23T11:49:34.345Z,3.75
2023-04-23T11:51:42.002Z,5.00
2023-04-23T11:53:46.213Z,3.50
2023-04-23T11:55:49.236Z,4.00
2023-04-23T11:57:52.533Z,4.25
2023-04-23T11:59:54.218Z,4.25
2023-04-23T12:01:59.450Z,4.00
2023-04-23T12:04:09.017Z,4.75
2023-04-23T12:06:10.700Z,5.00
2023-04-23T12:08:14.611Z,6.00
2023-04-23T12:10:18.008Z,4.25
2023-04-23T12:12:20.763Z,3.00
2023-04-23T12:14:27.160Z,4.00
2023-04-23T12:16:36.508Z,6.00
2023-04-23T12:18:41.967Z,6.00
2023-04-23T12:20:43.886Z,5.00
2023-04-23T12:22:45.515Z,6.00
2023-04-23T12:24:48.234Z,4.25
2023-04-23T12:26:52.680Z,7.00
2023-04-23T12:28:56.091Z,5.75
2023-04-23T12:31:00.226Z,5.50
2023-04-23T12:33:02.260Z,5.00
2023-04-23T12:35:06.030Z,5.00
2023-04-23T12:37:07.666Z,7.50
2023-04-23T12:39:27.757Z,4.00
2023-04-23T12:41:30.741Z,5.75
2023-04-23T12:43:33.369Z,11.50
2023-04-23T12:45:37.713Z,5.50
2023-04-23T12:47:39.323Z,4.00
2023-04-23T12:49:42.359Z,5.50
2023-04-23T12:51:45.778Z,5.00
2023-04-23T12:53:47.330Z,7.00
2023-04-23T12:55:48.963Z,4.25
2023-04-23T12:57:50.511Z,6.25
2023-04-23T12:59:51.999Z,5.00
2023-04-23T13:01:54.302Z,6.50
2023-04-23T13:03:56.130Z,7.00
2023-04-23T13:05:57.819Z,10.25
2023-04-23T13:08:00.806Z,3.25
2023-04-23T13:10:02.405Z,3.25
2023-04-23T13:12:04.275Z,4.00
2023-04-23T13:14:06.273Z,4.25
2023-04-23T13:16:08.035Z,4.00
2023-04-23T13:18:09.578Z,5.60
2023-04-23T13:20:11.645Z,5.75
2023-04-23T13:22:13.276Z,3.75
2023-04-23T13:24:16.642Z,4.00
2023-04-23T13:26:18.523Z,4.60
2023-04-23T13:28:20.238Z,3.00
2023-04-23T13:30:21.894Z,2.00
2023-04-23T13:32:23.754Z,4.20
2023-04-23T13:34:25.396Z,3.40
2023-04-23T13:36:26.984Z,3.80
2023-04-23T13:38:29.662Z,4.60
2023-04-23T13:40:32.763Z,3.00
2023-04-23T13:42:34.377Z,3.00
2023-04-23T13:44:35.958Z,4.00
2023-04-23T13:46:37.594Z,3.00
2023-04-23T13:48:39.464Z,3.00
2023-04-23T13:50:41.239Z,4.00
2023-04-23T13:52:42.863Z,3.00
2023-04-23T13:54:44.456Z,3.60
2023-04-23T13:56:47.394Z,4.00
2023-04-23T13:58:50.102Z,4.00
2023-04-23T14:00:52.097Z,3.40
2023-04-23T14:02:53.818Z,3.00
2023-04-23T14:04:55.605Z,3.60
2023-04-23T14:06:57.558Z,6.40
2023-04-23T14:08:59.112Z,4.00
2023-04-23T14:11:00.773Z,7.00
2023-04-23T14:13:04.039Z,4.60
2023-04-23T14:15:07.027Z,4.00
2023-04-23T14:17:08.625Z,4.00
2023-04-23T14:19:10.239Z,6.20
2023-04-23T14:21:13.223Z,5.60
2023-04-23T14:23:44.593Z,3.60
2023-04-23T14:25:46.656Z,4.00
2023-04-23T14:27:51.083Z,3.00
2023-04-23T14:29:58.603Z,4.40
2023-04-23T14:32:00.490Z,2.80
2023-04-23T14:34:02.062Z,1.60
2023-04-23T14:36:04.849Z,4.00
2023-04-23T14:38:06.519Z,3.00
2023-04-23T14:40:09.443Z,1.80
2023-04-23T14:42:11.540Z,2.60
2023-04-23T14:44:13.072Z,4.00
2023-04-23T14:46:16.297Z,3.80
2023-04-23T14:48:17.874Z,5.00
2023-04-23T14:50:19.500Z,4.40
2023-04-23T14:52:21.100Z,5.60
2023-04-23T14:54:23.136Z,6.20
2023-04-23T14:56:24.847Z,2.80
2023-04-23T14:58:26.490Z,4.00
2023-04-23T15:00:28.316Z,4.60
2023-04-23T15:02:31.490Z,2.40
2023-04-23T15:04:35.351Z,3.00
2023-04-23T15:06:37.375Z,4.80
2023-04-23T15:08:38.947Z,3.20
2023-04-23T15:10:40.611Z,4.20
2023-04-23T15:12:48.559Z,3.20
2023-04-23T15:14:50.356Z,3.40
2023-04-23T15:16:52.426Z,6.00
2023-04-23T15:18:55.608Z,4.60
2023-04-23T15:20:57.200Z,2.80
2023-04-23T15:23:00.889Z,5.60
2023-04-23T15:25:02.518Z,2.80
2023-04-23T15:27:04.361Z,3.40
2023-04-23T15:29:06.202Z,3.80
2023-04-23T15:31:08.167Z,4.80
2023-04-23T15:33:09.740Z,2.80
2023-04-23T15:35:12.734Z,5.40
2023-04-23T15:37:14.311Z,2.20
2023-04-23T15:39:15.914Z,7.40
2023-04-23T15:41:17.777Z,2.40
2023-04-23T15:43:19.285Z,4.00
2023-04-23T15:45:21.435Z,3.80
2023-04-23T15:47:23.407Z,3.00
2023-04-23T15:49:25.003Z,2.20
2023-04-23T15:51:27.973Z,4.00
2023-04-23T15:53:29.625Z,5.00
2023-04-23T15:55:31.232Z,4.00
2023-04-23T15:57:32.921Z,4.40
2023-04-23T15:59:34.506Z,3.00
2023-04-23T16:01:36.429Z,19.80
2023-04-23T16:03:38.569Z,1.60
2023-04-23T16:05:40.667Z,3.20
2023-04-23T16:07:43.599Z,5.00
2023-04-23T16:09:45.381Z,3.00
2023-04-23T16:11:47.158Z,3.20
2023-04-23T16:13:48.788Z,2.00
2023-04-23T16:15:50.555Z,12.00
2023-04-23T16:17:52.447Z,4.20
2023-04-23T16:19:54.257Z,3.60
2023-04-23T16:21:55.776Z,4.40
2023-04-23T16:23:58.788Z,3.00
2023-04-23T16:26:00.441Z,2.60
2023-04-23T16:28:02.244Z,4.00
2023-04-23T16:30:04.585Z,3.60
2023-04-23T16:32:06.206Z,3.00
2023-04-23T16:34:08.174Z,1.40
2023-04-23T16:36:09.838Z,2.80
2023-04-23T16:38:11.512Z,3.00
2023-04-23T16:40:14.456Z,6.20
2023-04-23T16:42:16.108Z,5.40
2023-04-23T16:44:17.745Z,3.60
2023-04-23T16:46:19.286Z,5.80
2023-04-23T16:48:20.848Z,3.80
2023-04-23T16:50:22.434Z,1.80
2023-04-23T16:52:24.181Z,2.80
2023-04-23T16:54:25.755Z,2.80
2023-04-23T16:56:28.886Z,3.40
2023-04-23T16:58:31.084Z,2.80
2023-04-23T17:00:32.651Z,2.80
2023-04-23T17:02:34.421Z,3.80
2023-04-23T17:04:37.180Z,5.00
2023-04-23T17:06:38.944Z,2.80
2023-04-23T17:08:40.583Z,5.20
2023-04-23T17:10:42.206Z,2.80
2023-04-23T17:12:45.125Z,3.60
2023-04-23T17:14:46.671Z,1.80
2023-04-23T17:16:48.360Z,4.80
2023-04-23T17:18:50.158Z,2.40
2023-04-23T17:20:51.798Z,3.60
2023-04-23T17:22:53.367Z,3.20
2023-04-23T17:24:55.101Z,7.20
2023-04-23T17:26:57.027Z,3.00
2023-04-23T17:29:00.433Z,3.60
2023-04-23T17:31:02.620Z,5.60
2023-04-23T17:33:04.484Z,3.00
2023-04-23T17:35:10.496Z,3.00
2023-04-23T17:37:15.356Z,4.40
2023-04-23T17:39:18.346Z,4.40
2023-04-23T17:41:20.143Z,3.20
2023-04-23T17:43:22.028Z,3.80
2023-04-23T17:45:25.063Z,2.80
2023-04-23T17:47:26.601Z,4.00
2023-04-23T17:49:28.310Z,3.20
2023-04-23T17:51:29.948Z,4.00
2023-04-23T17:53:31.531Z,4.20
2023-04-23T17:55:33.217Z,4.40
2023-04-23T17:57:34.905Z,4.00
2023-04-23T17:59:36.428Z,4.20
2023-04-23T18:01:39.595Z,6.20
2023-04-23T18:03:41.423Z,4.80
2023-04-23T18:05:43.165Z,4.60
2023-04-23T18:07:44.849Z,4.40
2023-04-23T18:09:46.623Z,6.00
2023-04-23T18:11:48.766Z,6.00
2023-04-23T18:13:50.491Z,7.00
2023-04-23T18:15:52.237Z,6.60
2023-04-23T18:17:55.133Z,5.50
2023-04-23T18:19:56.775Z,4.00
2023-04-23T18:21:58.449Z,8.00
2023-04-23T18:24:00.221Z,6.00
2023-04-23T18:26:01.844Z,3.00
2023-04-23T18:28:03.387Z,3.75
2023-04-23T18:30:06.451Z,5.25
2023-04-23T18:32:08.442Z,9.00
2023-04-23T18:34:18.089Z,7.50
2023-04-23T18:36:24.245Z,8.00
2023-04-23T18:38:30.892Z,9.00
2023-04-23T18:40:32.761Z,7.50
2023-04-23T18:42:34.610Z,7.25
2023-04-23T18:44:36.197Z,10.25
2023-04-23T18:46:37.820Z,7.00
2023-04-23T18:48:50.745Z,8.25
2023-04-23T18:50:56.513Z,8.00
2023-04-23T18:52:58.101Z,6.75
2023-04-23T18:54:59.650Z,6.25
2023-04-23T18:57:01.265Z,4.50
2023-04-23T18:59:02.949Z,5.75
2023-04-23T19:01:04.613Z,6.00
2023-04-23T19:03:15.412Z,5.50
2023-04-23T19:05:28.873Z,5.00
2023-04-23T19:07:35.249Z,6.00
2023-04-23T19:09:36.786Z,5.25
2023-04-23T19:11:38.675Z,3.75
2023-04-23T19:13:40.254Z,7.25
2023-04-23T19:15:41.898Z,7.75
2023-04-23T19:17:43.565Z,9.75
2023-04-23T19:19:45.266Z,6.00
2023-04-23T19:21:46.894Z,6.50
2023-04-23T19:23:50.214Z,5.75
2023-04-23T19:25:51.855Z,7.25
2023-04-23T19:27:53.466Z,3.00
2023-04-23T19:29:55.065Z,6.25
2023-04-23T19:31:56.658Z,7.25
2023-04-23T19:33:58.437Z,6.00
2023-04-23T19:36:00.025Z,9.00
2023-04-23T19:38:01.668Z,7.50
2023-04-23T19:40:05.569Z,7.25
2023-04-23T19:42:07.111Z,6.50
2023-04-23T19:44:08.691Z,7.00
2023-04-23T19:46:10.283Z,5.00
2023-04-23T19:48:14.739Z,6.75
2023-04-23T19:50:16.233Z,7.00
2023-04-23T19:52:22.174Z,7.00
2023-04-23T19:54:24.736Z,5.75
2023-04-23T19:56:27.834Z,4.00
2023-04-23T19:58:29.501Z,7.50
2023-04-23T20:00:31.103Z,8.00
2023-04-23T20:02:32.797Z,7.50
2023-04-23T20:04:34.615Z,8.50
2023-04-23T20:06:36.208Z,6.25
2023-04-23T20:08:37.746Z,12.75
2023-04-23T20:10:39.429Z,5.75
2023-04-23T20:12:42.484Z,7.75
2023-04-23T20:14:44.116Z,6.25
2023-04-23T20:16:45.986Z,5.75
2023-04-23T20:18:47.761Z,8.75
2023-04-23T20:20:49.436Z,7.75
2023-04-23T20:22:50.992Z,7.00
2023-04-23T20:24:52.686Z,9.25
2023-04-23T20:26:54.304Z,6.50
2023-04-23T20:28:57.468Z,11.00
2023-04-23T20:30:59.055Z,10.00
2023-04-23T20:33:00.904Z,9.25
2023-04-23T20:35:02.565Z,7.25
2023-04-23T20:37:04.397Z,10.00
2023-04-23T20:39:06.062Z,9.50
2023-04-23T20:41:10.034Z,5.50
2023-04-23T20:43:12.345Z,9.50
2023-04-23T20:45:15.483Z,8.25
2023-04-23T20:47:17.021Z,9.25
2023-04-23T20:49:19.023Z,8.00
2023-04-23T20:51:20.606Z,10.25
2023-04-23T20:53:22.628Z,6.00
2023-04-23T20:55:24.493Z,6.00
2023-04-23T20:57:26.052Z,9.25
2023-04-23T20:59:27.714Z,6.50
2023-04-23T21:01:30.829Z,7.25
2023-04-23T21:03:32.598Z,9.00
2023-04-23T21:05:34.265Z,8.75
2023-04-23T21:07:35.848Z,7.50
2023-04-23T21:09:37.815Z,8.25
2023-04-23T21:11:39.647Z,10.25
2023-04-23T21:13:41.229Z,6.00
2023-04-23T21:15:43.009Z,8.50
2023-04-23T21:17:46.359Z,7.25
2023-04-23T21:19:48.031Z,7.50
2023-04-23T21:21:49.738Z,11.00
2023-04-23T21:23:51.325Z,9.75
2023-04-23T21:25:52.956Z,11.00
2023-04-23T21:27:55.522Z,7.25
2023-04-23T21:30:00.272Z,9.50
2023-04-23T21:32:02.681Z,8.25
2023-04-23T21:34:06.013Z,10.00
2023-04-23T21:36:08.054Z,11.00
2023-04-23T21:38:10.459Z,15.00
2023-04-23T21:40:12.340Z,19.75
2023-04-23T21:42:13.966Z,13.25
2023-04-23T21:44:17.104Z,12.25
2023-04-23T21:46:18.818Z,10.00
2023-04-23T21:48:20.530Z,10.50
2023-04-23T21:50:23.542Z,12.00
2023-04-23T21:52:25.054Z,9.75
2023-04-23T21:54:26.711Z,10.00
2023-04-23T21:56:28.516Z,9.50
2023-04-23T21:58:30.152Z,8.00
2023-04-23T22:00:31.740Z,9.00
2023-04-23T22:02:33.429Z,9.75
2023-04-23T22:04:35.254Z,9.00
2023-04-23T22:06:38.594Z,10.00
2023-04-23T22:08:40.346Z,9.00
2023-04-23T22:10:41.962Z,9.75
2023-04-23T22:12:44.604Z,6.00
2023-04-23T22:14:46.234Z,7.50
2023-04-23T22:16:47.866Z,10.00
2023-04-23T22:18:49.433Z,9.25
2023-04-23T22:20:51.246Z,6.00
2023-04-23T22:22:54.251Z,11.75
2023-04-23T22:24:55.789Z,6.00
2023-04-23T22:26:57.381Z,12.00
2023-04-23T22:28:58.939Z,9.00
2023-04-23T22:31:00.728Z,9.00
2023-04-23T22:33:02.593Z,9.00
2023-04-23T22:35:05.309Z,8.25
2023-04-23T22:37:06.911Z,10.25
2023-04-23T22:39:09.882Z,12.00
2023-04-23T22:41:11.459Z,10.00
2023-04-23T22:43:13.093Z,11.75
2023-04-23T22:45:14.719Z,8.75
2023-04-23T22:47:16.289Z,9.75
2023-04-23T22:49:17.953Z,10.75
2023-04-23T22:51:19.496Z,8.25
2023-04-23T22:53:21.445Z,10.00
2023-04-23T22:55:24.406Z,7.75
2023-04-23T22:57:26.644Z,9.25
2023-04-23T22:59:28.256Z,8.25
2023-04-23T23:01:29.870Z,10.50
2023-04-23T23:03:31.666Z,9.00
2023-04-23T23:05:33.297Z,9.25
2023-04-23T23:07:34.951Z,11.75
2023-04-23T23:09:36.523Z,9.25
2023-04-23T23:11:39.482Z,8.50
2023-04-23T23:13:41.127Z,5.00
2023-04-23T23:15:42.953Z,4.75
2023-04-23T23:17:44.707Z,5.00
2023-04-23T23:19:46.343Z,7.75
2023-04-23T23:21:48.428Z,7.50
2023-04-23T23:23:50.034Z,7.75
2023-04-23T23:25:51.717Z,9.00
2023-04-23T23:27:54.797Z,5.50
2023-04-23T23:29:56.340Z,8.00
2023-04-23T23:31:57.981Z,3.00
2023-04-23T23:33:59.550Z,7.50
2023-04-23T23:36:01.154Z,6.25
2023-04-23T23:38:02.702Z,9.75
2023-04-23T23:40:05.376Z,6.75
2023-04-23T23:42:07.245Z,5.50
2023-04-23T23:44:10.222Z,10.00
2023-04-23T23:46:11.956Z,7.00
2023-04-23T23:48:13.718Z,7.25
2023-04-23T23:50:15.531Z,7.50
2023-04-23T23:52:17.149Z,6.00
2023-04-23T23:54:18.703Z,4.25
2023-04-23T23:56:20.249Z,8.75
2023-04-23T23:58:21.880Z,10.00
